METAR stanice u blizini

 

LYNI - Nis, Yugoslavia
Distance from station: JZ 40km
Ažurirano: 26/11/2020 18:30
Mist, Delimično oblačno
Mist, Delimično oblačno
 Pravac vetra IJI
Vetar: IJI 7 km/h
Temperatura: 3°C
Osećaj hladnoće: 1°C
Tačka rose: -1°C
Vlažnost: 75%
Pritisak: 1024 hPa
Pregled: Mist
Oblaci: Delimično oblačno
Vidljivost: 5 km
2020/11/26 17:30 LYNI 261730Z 11004KT 5000 BR NSC 03/M01 Q1024 NOSIG
LYKV - Kraljevo, Yugoslavia
Distance from station: ZSZ 136km
Ažurirano: 26/11/2020 18:30
Mist, Delimično oblačno
Mist, Delimično oblačno
 Pravac vetra I
Vetar: I 4 km/h
Temperatura: -1°C
Tačka rose: -1°C
Vlažnost: 100%
Pritisak: 1024 hPa
Pregled: Mist
Oblaci: Delimično oblačno
Vidljivost: 2 km
2020/11/26 17:30 LYKV 261730Z 08002KT 1500 R31/0150N R13/P2000N BR NSC M01/M01 Q1024 BECMG 0800 FZFG
LBSF - Sofia (observato, Bulgaria
Distance from station: JI 138km
Ažurirano: 26/11/2020 18:30
Freezing fog, Oblačno
Freezing fog, Oblačno
 Pravac vetra SSZ
Vetar: SSZ 6 km/h
Temperatura: -3°C
Tačka rose: -3°C
Vlažnost: 100%
Pritisak: 1025 hPa
Pregled: Freezing Fog
Oblaci: Oblačno
Vidljivost: 0 km
Cloud details: Oblačno 30 m
2020/11/26 17:30 LBSF 261730Z 34003KT 300V010 0150 R27/0200N FZFG VV001 M03/M03 Q1025 NOSIG
 
BKPR - Prishtina, Yugoslavia
Distance from station: JZ 147km
Ažurirano: 26/11/2020 18:30
Delimično oblačno
Delimično oblačno
 Pravac vetra calm
Vetar: Tišina
Temperatura: 0°C
Tačka rose: -3°C
Vlažnost: 80%
Pritisak: 1024 hPa
Oblaci: Delimično oblačno
Vidljivost: 6 km
2020/11/26 17:30 BKPR 261730Z 00000KT 6000 NSC 00/M03 Q1024 NOSIG RMK 17010095
LRCV - Craiova, Romania
Distance from station: SI 154km
Ažurirano: 26/11/2020 18:30
Freezing fog, Oblačno
Freezing fog, Oblačno
 Pravac vetra ZJZ
Vetar: ZJZ 6 km/h
Temperatura: -3°C
Tačka rose: -3°C
Vlažnost: 100%
Pritisak: 1023 hPa
Pregled: Freezing Fog
Oblaci: Oblačno
Vidljivost: 0 km
Cloud details: Oblačno 30 m
2020/11/26 17:30 LRCV 261730Z 25003KT 0100 R27/0175N FZFG VV001 M03/M03 Q1023
LWSK - Skopje/Petrovac, Macedonia
Distance from station: JJZ 185km
Ažurirano: 26/11/2020 18:30
Vedro
Vedro
 Pravac vetra SI
Vetar: SI 4 km/h
Temperatura: 0°C
Tačka rose: -3°C
Vlažnost: 80%
Pritisak: 1025 hPa
Pregled: Vedro
Vidljivost: greater than 10 km
2020/11/26 17:30 LWSK 261730Z 04002KT CAVOK 00/M03 Q1025 NOSIG
 
LYVR - Vrsac, Yugoslavia
Distance from station: SSZ 189km
Ažurirano: 26/11/2020 18:30
Magla, Oblačno
Magla, Oblačno
 Pravac vetra varies
Vetar: varies 4 km/h
Temperatura: 0°C
Tačka rose: 0°C
Vlažnost: 100%
Pritisak: 1026 hPa
Pregled: Magla
Oblaci: Oblačno
Vidljivost: 1 km
Cloud details: Oblačno 61 m
2020/11/26 17:30 LYVR 261730Z AUTO VRB02KT 0650 R19/0800N R01/0800N FG VV002 00/M00 Q1026
LYUZ - Uzice-Ponikve, Yugoslavia
Distance from station: Z 207km
Ažurirano: 26/11/2020 18:30
Vedro
Vedro
 Pravac vetra calm
Vetar: Tišina
Temperatura: 5°C
Tačka rose: -4°C
Vlažnost: 53%
Pritisak: 1022 hPa
Pregled: Vedro
Vidljivost: greater than 10 km
2020/11/26 17:30 LYUZ 261730Z 00000KT CAVOK 05/M04 Q1022
LYBE - Belgrade/Surcin, Yugoslavia
Distance from station: SZ 209km
Ažurirano: 26/11/2020 18:30
Mist, Oblačno
Mist, Oblačno
 Pravac vetra SI
Vetar: SI 7 km/h
Temperatura: 0°C
Osećaj hladnoće: -3°C
Tačka rose: 0°C
Vlažnost: 100%
Pritisak: 1026 hPa
Pregled: Mist
Oblaci: Oblačno
Vidljivost: 2 km
Cloud details: Oblačno 30 m
2020/11/26 17:30 LYBE 261730Z 04004KT 1500 BR OVC001 00/00 Q1026 NOSIG
 
LYBT - Batajnica, Yugoslavia
Distance from station: SZ 219km
Ažurirano: 26/11/2020 18:30
Magla, Oblačno
Magla, Oblačno
 Pravac vetra calm
Vetar: Tišina
Temperatura: 0°C
Tačka rose: 0°C
Vlažnost: 100%
Pritisak: 1026 hPa
Pregled: Magla
Oblaci: Oblačno
Vidljivost: 1 km
Cloud details: Oblačno 61 m
2020/11/26 17:30 LYBT 261730Z 00000KT 0800 R12/1400D R30/P2000N FG VV002 00/00 Q1026 NOSIG
LRTR - Timisoara/Giarma, Romania
Distance from station: SSZ 260km
Ažurirano: 26/11/2020 18:30
Magla, Oblačno
Magla, Oblačno
 Pravac vetra S
Vetar: S 11 km/h
Temperatura: 1°C
Osećaj hladnoće: -2°C
Tačka rose: 1°C
Vlažnost: 100%
Pritisak: 1025 hPa
Pregled: Magla
Oblaci: Oblačno
Vidljivost: 1 km
Cloud details: Oblačno 30 m
2020/11/26 17:30 LRTR 261730Z 35006KT 0800 R11/P2000D R29/1800U FG OVC001 01/01 Q1025
LBPD - Plovdiv, Bulgaria
Distance from station: JI 263km
Ažurirano: 26/11/2020 18:30
Vedro
Vedro
 Pravac vetra JJI
Vetar: JJI 9 km/h
Temperatura: 5°C
Osećaj hladnoće: 3°C
Tačka rose: -4°C
Vlažnost: 53%
Pritisak: 1024 hPa
Oblaci: Vedro
Vidljivost: 10 km
2020/11/26 17:30 LBPD 261730Z AUTO 16005KT 9999 NCD 05/M04 Q1024 NOSIG
 
LYPG - Podgorica(Titogr, Yugoslavia
Distance from station: ZJZ 278km
Ažurirano: 26/11/2020 18:30
Vedro
Vedro
 Pravac vetra IJI
Vetar: IJI 2 km/h
Temperatura: 6°C
Tačka rose: 0°C
Vlažnost: 66%
Pritisak: 1023 hPa
Pregled: Vedro
Vidljivost: greater than 10 km
2020/11/26 17:30 LYPG 261730Z 12001KT CAVOK 06/M00 Q1023 NOSIG
LBGO - Gorna Orechovist, Bulgaria
Distance from station: I 285km
Ažurirano: 26/11/2020 18:30
Vedro
Vedro
 Pravac vetra varies
Vetar: varies 4 km/h
Temperatura: -2°C
Tačka rose: -2°C
Vlažnost: 100%
Pritisak: 1024 hPa
Oblaci: Vedro
Vidljivost: 9 km
2020/11/26 17:30 LBGO 261730Z AUTO VRB02KT 9000 3500W NCD M02/M02 Q1024
LRSB - Sibiu/Turnisor, Romania
Distance from station: SSI 286km
Ažurirano: 26/11/2020 18:30
Freezing fog, Oblačno
Freezing fog, Oblačno
 Pravac vetra varies
Vetar: varies 4 km/h
Temperatura: -3°C
Tačka rose: -3°C
Vlažnost: 100%
Pritisak: 1024 hPa
Pregled: Freezing Fog
Oblaci: Oblačno
Vidljivost: 0 km
Cloud details: Oblačno 61 m
2020/11/26 17:30 LRSB 261730Z VRB02KT 0300 R27/0500N FZFG OVC002 M03/M03 Q1024
 
LWOH - Ohrid, Macedonia
Distance from station: JJZ 292km
Ažurirano: 26/11/2020 15:30
NOT Current
Vedro
Vedro
 Pravac vetra calm
Vetar: Tišina
Temperatura: 12°C
Tačka rose: -5°C
Vlažnost: 30%
Pritisak: 1023 hPa
Pregled: Vedro
Vidljivost: greater than 10 km
2020/11/26 14:30 LWOH 261430Z 00000KT CAVOK 12/M05 Q1023
LQTZ - Tuzla, Yugoslavia
Distance from station: ZSZ 298km
Ažurirano: 26/11/2020 18:00
Mist, Oblačno
Mist, Oblačno
 Pravac vetra SZ
Vetar: SZ 6 km/h
Temperatura: 2°C
Tačka rose: 1°C
Vlažnost: 93%
Pritisak: 1024 hPa
Pregled: Mist
Oblaci: Oblačno
Vidljivost: 2 km
Cloud details: Pretežno oblačno 91 m
Oblačno 244 m
2020/11/26 17:00 LQTZ 261700Z 31003KT 2000 BR BKN003 OVC008 02/01 Q1024
LRAR - Arad, Romania
Distance from station: SSZ 301km
Ažurirano: 26/11/2020 18:30
Mist, Oblačno
Mist, Oblačno
 Pravac vetra SSI
Vetar: SSI 6 km/h
Temperatura: 1°C
Tačka rose: 1°C
Vlažnost: 100%
Pritisak: 1025 hPa
Pregled: Mist
Oblaci: Oblačno
Vidljivost: 2 km
Cloud details: Delimično oblačno 30 m
Oblačno 91 m
2020/11/26 17:30 LRAR 261730Z 02003KT 360V070 2300 BR SCT001 OVC003 01/01 Q1025
 
LYTV - Tivat, Yugoslavia
Distance from station: ZJZ 315km
Ažurirano: 26/11/2020 18:30
Vedro
Vedro
 Pravac vetra JI
Vetar: JI 6 km/h
Temperatura: 5°C
Tačka rose: 3°C
Vlažnost: 87%
Pritisak: 1022 hPa
Pregled: Vedro
Vidljivost: greater than 10 km
2020/11/26 17:30 LYTV 261730Z 13003KT 090V150 CAVOK 05/03 Q1022
LATI - Tirana, Albania
Distance from station: JZ 316km
Ažurirano: 26/11/2020 18:20
Vedro
Vedro
 Pravac vetra JI
Vetar: JI 6 km/h
Temperatura: 5°C
Tačka rose: 2°C
Vlažnost: 81%
Pritisak: 1022 hPa
Pregled: Vedro
Vidljivost: greater than 10 km
2020/11/26 17:20 LATI 261720Z 13003KT CAVOK 05/02 Q1022 NOSIG
LQBK - Banja Luka, Yugoslavia
Distance from station: SZ 426km
Ažurirano: 26/11/2020 18:30
Mist, Oblačno
Mist, Oblačno
 Pravac vetra ZSZ
Vetar: ZSZ 4 km/h
Temperatura: 3°C
Tačka rose: 1°C
Vlažnost: 87%
Pritisak: 1025 hPa
Pregled: Mist
Oblaci: Oblačno
Vidljivost: 4 km
Cloud details: Oblačno 305 m
2020/11/26 17:30 LQBK 261730Z 30002KT 3500 BR OVC010 03/01 Q1025 NOSIG
 
LDOS - Osijek, Croatia
Distance from station: SSZ 360km
Ažurirano: 26/11/2020 18:30
Mist, Oblačno
Mist, Oblačno
 Pravac vetra ISI
Vetar: ISI 6 km/h
Temperatura: 3°C
Tačka rose: 2°C
Vlažnost: 93%
Pritisak: 1025 hPa
Pregled: Mist
Oblaci: Oblačno
Vidljivost: 3 km
Cloud details: Oblačno 213 m
2020/11/26 17:30 LDOS 261730Z 06003KT 020V090 3000 BR OVC007 03/02 Q1025
LDDU - Dubrovnik-Cilipi, Croatia
Distance from station: JZ 352km
Ažurirano: 26/11/2020 18:30
Vedro
Vedro
 Pravac vetra ZSZ
Vetar: ZSZ 11 km/h
Temperatura: 12°C
Tačka rose: 6°C
Vlažnost: 67%
Pritisak: 1022 hPa
Pregled: Vedro
Vidljivost: greater than 10 km
2020/11/26 17:30 LDDU 261730Z 30006KT CAVOK 12/06 Q1022 NOSIG
LQMO - Mostar Airport, Bosnia-Herzegovina
Distance from station: Z 359km
Ažurirano: 26/11/2020 18:00
Vedro
Vedro
 Pravac vetra SSI
Vetar: SSI 6 km/h
Temperatura: 5°C
Tačka rose: 0°C
Vlažnost: 70%
Pritisak: 1022 hPa
Pregled: Vedro
Vidljivost: greater than 10 km
2020/11/26 17:00 LQMO 261700Z 02003KT CAVOK 05/M00 Q1022
 
LQSA - Sarajevo/Butmir, Yugoslavia
Distance from station: Z 311km
Ažurirano: 26/11/2020 18:30
Delimično oblačno
Delimično oblačno
 Pravac vetra J
Vetar: J 4 km/h
Temperatura: -1°C
Tačka rose: -1°C
Vlažnost: 100%
Pritisak: 1023 hPa
Oblaci: Delimično oblačno
Vidljivost: 8 km
2020/11/26 17:30 LQSA 261730Z 18002KT 8000 NSC M01/M01 Q1023 NOSIG
LDSP - Split/Kastel Sta, Croatia
Distance from station: Z 468km
Ažurirano: 26/11/2020 18:30
Vedro
Vedro
 Pravac vetra SZ
Vetar: SZ 13 km/h
Temperatura: 12°C
Tačka rose: 5°C
Vlažnost: 63%
Pritisak: 1023 hPa
Pregled: Vedro
Vidljivost: greater than 10 km
2020/11/26 17:30 LDSP 261730Z 31007KT CAVOK 12/05 Q1023 NOSIG
LDZD - Zadar/Zemunik, Croatia
Distance from station: ZSZ 567km
Ažurirano: 26/11/2020 18:30
Vedro
Vedro
 Pravac vetra varies
Vetar: varies 2 km/h
Temperatura: 5°C
Tačka rose: 4°C
Vlažnost: 93%
Pritisak: 1023 hPa
Pregled: Vedro
Vidljivost: greater than 10 km
2020/11/26 17:30 LDZD 261730Z VRB01KT CAVOK 05/04 Q1023 NOSIG
 
LDZA - Zagreb/Pleso, Croatia
Distance from station: SZ 555km
Ažurirano: 26/11/2020 18:30
Light drizzle, Mist, Oblačno
Light drizzle, Mist, Oblačno
 Pravac vetra varies
Vetar: varies 2 km/h
Temperatura: 1°C
Tačka rose: 0°C
Vlažnost: 93%
Pritisak: 1025 hPa
Pregled: Light drizzle, Mist
Oblaci: Oblačno
Vidljivost: 2 km
Cloud details: Oblačno 61 m
2020/11/26 17:30 LDZA 261730Z VRB01KT 1500 -DZ BR OVC002 01/00 Q1025 NOSIG
LJCE - Cerklje, Slovenia
Distance from station: SZ 680km
Ažurirano: 26/11/2020 18:30
Magla, Oblačno
Magla, Oblačno
 Pravac vetra ISI
Vetar: ISI 7 km/h
Temperatura: 0°C
Osećaj hladnoće: -3°C
Tačka rose: 0°C
Vlažnost: 100%
Pritisak: 1025 hPa
Pregled: Magla
Oblaci: Oblačno
Vidljivost: 0 km
Cloud details: Oblačno 61 m
2020/11/26 17:30 LJCE 261730Z 06004KT 030V100 0400 FG VV002 00/M00 Q1025 RMK RED
LJMB - Maribor, Slovenia
Distance from station: SZ 616km
Ažurirano: 26/11/2020 18:30
Mist, Oblačno
Mist, Oblačno
 Pravac vetra SSZ
Vetar: SSZ 7 km/h
Temperatura: 0°C
Osećaj hladnoće: -3°C
Tačka rose: -1°C
Vlažnost: 93%
Pritisak: 1024 hPa
Pregled: Mist
Oblaci: Oblačno
Vidljivost: 3 km
Cloud details: Oblačno 122 m
2020/11/26 17:30 LJMB 261730Z 34004KT 3000 BR OVC004 M00/M01 Q1024
 
LJLJ - Ljubljana/Brnik, Slovenia
Distance from station: SZ 671km
Ažurirano: 26/11/2020 18:30
Freezing fog, Oblačno
Freezing fog, Oblačno
 Pravac vetra JJI
Vetar: JJI 4 km/h
Temperatura: -2°C
Tačka rose: -2°C
Vlažnost: 100%
Pritisak: 1023 hPa
Pregled: Freezing Fog
Oblaci: Oblačno
Vidljivost: 0 km
Cloud details: Oblačno 30 m
2020/11/26 17:30 LJLJ 261730Z 15002KT 0300 R30/0450N FZFG VV001 M02/M02 Q1023 NOSIG
LDRI - Rijeka, Croatia
Distance from station: SZ 650km
Ažurirano: 26/11/2020 18:30
Vedro
Vedro
 Pravac vetra calm
Vetar: Tišina
Temperatura: 8°C
Tačka rose: 5°C
Vlažnost: 82%
Pritisak: 1023 hPa
Pregled: Vedro
Vidljivost: greater than 10 km
2020/11/26 17:30 LDRI 261730Z 00000KT CAVOK 08/05 Q1023
LDPL - Pula, Croatia
Distance from station: ZSZ 686km
Ažurirano: 26/11/2020 18:30
Vedro
Vedro
 Pravac vetra S
Vetar: S 11 km/h
Temperatura: 8°C
Osećaj hladnoće: 6°C
Tačka rose: 5°C
Vlažnost: 82%
Pritisak: 1023 hPa
Pregled: Vedro
Vidljivost: greater than 10 km
2020/11/26 17:30 LDPL 261730Z 01006KT CAVOK 08/05 Q1023
 
LJPZ - Portorož, Slovenia
Distance from station: ZSZ 720km
Ažurirano: 26/11/2020 18:30
Delimično oblačno
Delimično oblačno
 Pravac vetra IJI
Vetar: IJI 15 km/h
Temperatura: 6°C
Osećaj hladnoće: 3°C
Tačka rose: 5°C
Vlažnost: 93%
Pritisak: 1024 hPa
Oblaci: Delimično oblačno
Vidljivost: 7 km
2020/11/26 17:30 LJPZ 261730Z 12008KT 7000 NSC 06/05 Q1024